M I D A S
Marine Information and Data Acquisition System
Tripno 485 of the Zeeleeuw from 2003-05-06 06:51:58 to 2003-05-06 12:18:34
Back to CruiseResearch ActivitiesStationsMapUnderway DataData graphs

EquipmentUnitsComment
TimeDGPSUTC
LatitudeDGPSDM.mWGS84
LongitudeDGPSDM.mWGS84
HeadingGyrodeg 
SOGDGPSknotsSpeed over ground
COGDGPSdegCourse over ground
DepthEcho soundermeters200 kHz
Missing or incorrect values are displayed as -999
Navigation data collected by the RV Zeeleeuw from 2003-05-06 06:51:58 to 2003-05-06 12:18:34
Time Latitude Longitude Heading SOG COG Depth
2003-05-06 06:53:00 51°13.6 2°56.11 122.2   186 7.3
2003-05-06 06:54:00 51°13.6 2°56.11 114.6 0.1 193 7.5
2003-05-06 06:55:00 51°13.61 2°56.08 113.9 2.2 292 -999
2003-05-06 06:56:04 51°13.63 2°55.99 114.4 4 289 -999
2003-05-06 06:57:04 51°13.65 2°55.89 120.9 4.9 297 -999
2003-05-06 06:58:04 51°13.68 2°55.79 113.9 3.2 291 -999
2003-05-06 06:59:00 51°13.69 2°55.78 71.1 1.6 59 10.9
2003-05-06 07:00:02 51°13.69 2°55.78 47.2 1.6 226 -999
2003-05-06 07:01:04 51°13.7 2°55.77 3.2 2.2 354 11.1
2003-05-06 07:02:00 51°13.73 2°55.74 324.4 2.2 318 9.7
2003-05-06 07:03:00 51°13.76 2°55.69 334.2 3.7 327 9.4
2003-05-06 07:04:00 51°13.84 2°55.63 340.7 6.8 335 9.6
2003-05-06 07:05:00 51°13.95 2°55.54 339.8 7.7 336 9.7
2003-05-06 07:06:00 51°14.07 2°55.45 340.5 7.9 335 9.5
2003-05-06 07:07:00 51°14.19 2°55.35 333.8 8 328 9.5
2003-05-06 07:08:00 51°14.3 2°55.2 317.1 9.1 311 9.7
2003-05-06 07:09:00 51°14.39 2°55 309.1 9.4 301 10.2
2003-05-06 07:10:00 51°14.44 2°54.77 293.3 7.8 283 10.4
2003-05-06 07:11:00 51°14.44 2°54.62 271.1 4.5 259 10.4
2003-05-06 07:12:00 51°14.4 2°54.43 251.7 10.6 246 9.3
2003-05-06 07:13:00 51°14.32 2°54.15 246.3 10.5 243 8.9
2003-05-06 07:14:00 51°14.26 2°53.97 248.8 6.2 245 9
2003-05-06 07:15:00 51°14.23 2°53.88 254 3 242 9.1
2003-05-06 07:16:00 51°14.21 2°53.81 257.7 3 246 9.1
2003-05-06 07:17:00 51°14.19 2°53.74 259.7 3 249 9.1
2003-05-06 07:18:00 51°14.17 2°53.67 258.7 3 246 9.2
2003-05-06 07:19:00 51°14.16 2°53.59 259 3 246 9.3
2003-05-06 07:20:00 51°14.11 2°53.45 234.1 9.4 230 9.3
2003-05-06 07:21:00 51°13.99 2°53.23 240.6 11.8 235 9.3
2003-05-06 07:22:00 51°13.88 2°52.94 243.1 13.1 240 9.6
2003-05-06 07:23:00 51°13.77 2°52.64 243 13.2 239 9.6
2003-05-06 07:24:00 51°13.66 2°52.35 243 13.1 239 9.9
2003-05-06 07:25:00 51°13.55 2°52.04 244 13.3 240 9.9
2003-05-06 07:26:00 51°13.44 2°51.74 245.1 13.3 241 10
2003-05-06 07:27:00 51°13.33 2°51.43 244.1 13.8 239 10
2003-05-06 07:28:00 51°13.21 2°51.11 243.8 14 239 10
2003-05-06 07:29:00 51°13.09 2°50.78 244.2 14.5 240 10
2003-05-06 07:30:00 51°12.97 2°50.44 244.1 14.6 241 10.1
2003-05-06 07:31:00 51°12.85 2°50.1 244.1 14.7 241 10.2
2003-05-06 07:32:00 51°12.73 2°49.76 244.8 14.7 241 10.3
2003-05-06 07:33:00 51°12.61 2°49.42 244.8 14.7 240 10.4
2003-05-06 07:34:00 51°12.5 2°49.07 247.2 14.7 243 10.6
2003-05-06 07:35:00 51°12.39 2°48.73 246.8 14.7 242 10.7
2003-05-06 07:36:00 51°12.28 2°48.38 247.1 14.7 244 10.8
2003-05-06 07:37:00 51°12.17 2°48.03 246.8 14.8 243 11
2003-05-06 07:38:00 51°12.06 2°47.68 246.7 14.7 243 11
2003-05-06 07:39:00 51°11.95 2°47.33 247 14.8 243 11.1
2003-05-06 07:40:00 51°11.85 2°46.98 247.3 14.8 244 11
2003-05-06 07:41:00 51°11.74 2°46.63 247.4 14.8 244 11.1
2003-05-06 07:42:00 51°11.63 2°46.28 248 14.8 245 11
2003-05-06 07:43:00 51°11.52 2°45.92 248.1 14.8 245 10.8
2003-05-06 07:44:00 51°11.42 2°45.57 247.1 14.8 244 10.7
2003-05-06 07:45:00 51°11.31 2°45.22 247.5 14.8 245 10.5
2003-05-06 07:46:00 51°11.2 2°44.87 247.2 14.8 244 10.3
2003-05-06 07:47:00 51°11.09 2°44.52 246.7 14.8 244 10
2003-05-06 07:48:00 51°10.99 2°44.16 247.4 14.7 245 9.7
2003-05-06 07:49:00 51°10.88 2°43.81 247.6 14.7 245 9.5
2003-05-06 07:50:00 51°10.77 2°43.46 247.9 14.6 246 9.3
2003-05-06 07:51:00 51°10.67 2°43.11 247.6 14.6 245 9
2003-05-06 07:52:00 51°10.57 2°42.76 251.5 14.5 249 8.8
2003-05-06 07:53:00 51°10.48 2°42.41 251.1 14.5 248 8.6
2003-05-06 07:54:00 51°10.38 2°42.05 248.9 14.5 246 8.6
2003-05-06 07:55:00 51°10.29 2°41.7 246.7 14.5 244 8.6
2003-05-06 07:56:00 51°10.19 2°41.35 248.5 14.6 245 8.7
2003-05-06 07:57:00 51°10.09 2°40.99 251.4 14.7 248 8.8
2003-05-06 07:58:00 51°9.99 2°40.64 250.9 14.6 248 8.8
2003-05-06 07:59:00 51°9.9 2°40.28 250.1 14.6 247 8.8
2003-05-06 08:00:00 51°9.8 2°39.92 248.9 14.7 247 8.9
2003-05-06 08:01:00 51°9.71 2°39.57 247.5 14.7 245 8.9
2003-05-06 08:02:00 51°9.61 2°39.21 247 14.7 244 9
2003-05-06 08:03:00 51°9.51 2°38.85 251.1 14.7 249 9.2
2003-05-06 08:04:00 51°9.42 2°38.5 249.9 14.7 247 9.2
2003-05-06 08:05:00 51°9.32 2°38.14 247.7 14.6 245 9.2
2003-05-06 08:06:00 51°9.23 2°37.78 247.7 14.6 245 9
2003-05-06 08:07:00 51°9.13 2°37.43 250.5 13.7 249 8.7
2003-05-06 08:08:00 51°9.06 2°37.19 236.3 5.9 238 8.8
2003-05-06 08:09:00 51°9.04 2°37.14 275.1 2.8 267 8.8
2003-05-06 08:10:00 51°9.09 2°37.06 11.6 4.8 1 9.3
2003-05-06 08:11:00 51°9.12 2°37.16 96 4.2 97 9.4
2003-05-06 08:12:00 51°9.11 2°37.21 102 0.6 155 9.2
2003-05-06 08:13:00 51°9.1 2°37.22 81.9 0.4 152 9.1
2003-05-06 08:14:00 51°9.1 2°37.22 74.6 0.2 116 9.1
2003-05-06 08:15:00 51°9.1 2°37.23 71.3 0.2 92 9
2003-05-06 08:16:00 51°9.1 2°37.24 67.4 0.3 76 9
2003-05-06 08:17:00 51°9.1 2°37.24 63.9 0.3 53 9
2003-05-06 08:18:00 51°9.1 2°37.25 61.6 0.3 41 9
2003-05-06 08:19:00 51°9.1 2°37.25 59.4 0.3 39 9
2003-05-06 08:20:00 51°9.1 2°37.26 59 0.2 48 9
2003-05-06 08:21:00 51°9.11 2°37.26 58.6 0.2 74 9.1
2003-05-06 08:22:00 51°9.11 2°37.26 56.7 0.1 5 9
2003-05-06 08:23:00 51°9.11 2°37.26 56.2 0.2 17 9
2003-05-06 08:24:00 51°9.11 2°37.26 54.9 0.1 321 9.1
2003-05-06 08:25:00 51°9.11 2°37.26 54.7 0.1 341 9
2003-05-06 08:26:00 51°9.11 2°37.26 54.4   277 9.1
2003-05-06 08:27:00 51°9.12 2°37.26 52.2 0.1 311 9.1
2003-05-06 08:28:00 51°9.12 2°37.26 51.6 0.1 329 9.1
2003-05-06 08:29:00 51°9.12 2°37.26 50.3 0.2 301 9.1
2003-05-06 08:30:00 51°9.12 2°37.25 49.6 0.2 328 9.1
2003-05-06 08:31:00 51°9.12 2°37.25 43 0.5 357 9.1
2003-05-06 08:32:00 51°9.15 2°37.24 358.7 2.6 332 9.3
2003-05-06 08:33:00 51°9.18 2°37.16 286.2 4.5 276 9.7
2003-05-06 08:34:00 51°9.14 2°36.93 257.6 12.9 254 9.8
2003-05-06 08:35:00 51°9.07 2°36.58 255.4 14.6 251 10
2003-05-06 08:36:00 51°9 2°36.2 258.3 15.1 253 11.1
2003-05-06 08:37:00 51°8.93 2°35.82 259.2 15.1 255 12.3
2003-05-06 08:38:00 51°8.86 2°35.43 254.9 15.1 251 13.4
2003-05-06 08:39:00 51°8.77 2°35.06 253.4 15.3 249 14.3
2003-05-06 08:40:00 51°8.67 2°34.69 247.9 15.3 244 15.1
2003-05-06 08:41:00 51°8.58 2°34.31 253.7 15.2 249 15.6
2003-05-06 08:42:00 51°8.49 2°33.94 254.2 15.2 250 15.5
2003-05-06 08:43:00 51°8.4 2°33.56 254.2 15.1 249 15.6
2003-05-06 08:44:00 51°8.32 2°33.22 258.6 10.6 252 15.7
2003-05-06 08:45:00 51°8.29 2°33.02 264.1 6.4 255 15.2
2003-05-06 08:46:00 51°8.25 2°32.9 215.2 4.5 218 15.7
2003-05-06 08:47:00 51°8.19 2°32.87 166 3.5 183 15.7
2003-05-06 08:48:00 51°8.13 2°32.91 132.2 4.6 146 15.2
2003-05-06 08:49:00 51°8.07 2°32.97 125.8 2.8 146 14.6
2003-05-06 08:50:00 51°8.05 2°32.95 98.3 1.5 219 14.4
2003-05-06 08:51:00 51°8.04 2°32.97 62.8 0.5 164 14.3
2003-05-06 08:52:00 51°8.04 2°32.96 52.3 0.4 209 14.1
2003-05-06 08:53:00 51°8.03 2°32.96 46.2 0.2 241 14.1
2003-05-06 08:54:00 51°8.03 2°32.96 34.9 0.3 290 14.1
2003-05-06 08:55:00 51°8.04 2°32.95 25.8 0.5 305 14.2
2003-05-06 08:56:00 51°8.04 2°32.94 19.1 0.6 301 14.4
2003-05-06 08:57:00 51°8.05 2°32.92 17.3 0.7 300 14.5
2003-05-06 08:58:00 51°8.05 2°32.91 14.7 0.7 292 14.5
2003-05-06 08:59:00 51°8.06 2°32.89 11.7 0.7 289 14.7
2003-05-06 09:00:00 51°8.06 2°32.87 11.4 0.7 291 14.8
2003-05-06 09:01:00 51°8.06 2°32.85 10.5 0.8 286 14.8
2003-05-06 09:02:00 51°8.07 2°32.83 7.5 0.8 288 15
2003-05-06 09:03:00 51°8.07 2°32.81 4.7 0.9 285 15.1
2003-05-06 09:04:00 51°8.07 2°32.79 3.6 0.9 288 15.2
2003-05-06 09:05:00 51°8.08 2°32.77 3.6 0.8 286 15.4
2003-05-06 09:06:00 51°8.08 2°32.75 8.6 1 313 15.2
2003-05-06 09:07:00 51°8.1 2°32.73 22.8 1.5 355 15.3
2003-05-06 09:08:00 51°8.13 2°32.75 54.4 1.6 48 15.9
2003-05-06 09:09:00 51°8.14 2°32.8 73.8 3.8 75 15.7
2003-05-06 09:10:00 51°8.11 2°32.92 140.6 6.4 147 15
2003-05-06 09:11:00 51°8.04 2°33.02 104.9 4.5 112 14
2003-05-06 09:12:00 51°8.05 2°33.08 47.7 0.1 127 13.9
2003-05-06 09:13:00 51°8.05 2°33.07 44.2 0.3 237 13.9
2003-05-06 09:14:00 51°8.05 2°33.06 25.7 0.5 272 13.9
2003-05-06 09:15:00 51°8.05 2°33.05 20.1 0.6 275 13.9
2003-05-06 09:16:00 51°8.05 2°33.04 19.3 0.6 278 14
2003-05-06 09:17:00 51°8.05 2°33.02 20.3 0.6 270 14.1
2003-05-06 09:18:00 51°8.06 2°33 0.6 2 328 14.4
2003-05-06 09:19:00 51°8.1 2°32.96 354.4 3.3 331 15
2003-05-06 09:20:00 51°8.22 2°32.91 2.6 11 352 15.2
2003-05-06 09:21:00 51°8.42 2°32.87 0.7 12.3 350 15.4
2003-05-06 09:22:00 51°8.63 2°32.82 1.4 12.3 352 18.2
2003-05-06 09:23:00 51°8.83 2°32.77 1.8 12.3 351 17.3
2003-05-06 09:24:00 51°8.98 2°32.72 0.3 7.1 348 16.2
2003-05-06 09:25:00 51°9.04 2°32.75 55.1 2.4 51 14.7
2003-05-06 09:26:00 51°9.05 2°32.77 46.8 0.3 44 14.6
2003-05-06 09:27:00 51°9.05 2°32.77 50.5 0.1 79 14.7
2003-05-06 09:28:00 51°9.05 2°32.77 39 0.2 301 14.5
2003-05-06 09:29:00 51°9.06 2°32.77 24 0.4 296 14.3
2003-05-06 09:30:00 51°9.06 2°32.75 11.7 0.7 293 13.9
2003-05-06 09:31:00 51°9.06 2°32.73 0.2 0.9 286 13.5
2003-05-06 09:32:00 51°9.07 2°32.71 345.3 1.1 277 12.9
2003-05-06 09:33:00 51°9.07 2°32.67 328.5 1.5 271 12.2
2003-05-06 09:34:00 51°9.07 2°32.63 310.6 1.8 263 11.6
2003-05-06 09:35:00 51°9.07 2°32.58 304.8 1.9 267 10.9
2003-05-06 09:36:00 51°9.06 2°32.53 307.3 2 270 10.2
2003-05-06 09:37:00 51°9.06 2°32.48 311.7 1.9 272 9.4
2003-05-06 09:38:00 51°9.08 2°32.43 336.9 1.8 306 8.7
2003-05-06 09:39:00 51°9.12 2°32.44 54.8 3.8 54 8.1
2003-05-06 09:40:00 51°9.11 2°32.61 112.5 6.8 113 10.2
2003-05-06 09:41:00 51°9.11 2°32.72 74.4 3.1 79 11.9
2003-05-06 09:42:00 51°9.12 2°32.77 55.4 0.6 78 12.3
2003-05-06 09:43:00 51°9.12 2°32.78 40.7 0.2 14 12.2
2003-05-06 09:44:00 51°9.12 2°32.77 39.2 0.1 265 12.2
2003-05-06 09:45:00 51°9.12 2°32.77 37 0.2 226 12.3
2003-05-06 09:46:00 51°9.11 2°32.76 37.7 0.4 235 12.3
2003-05-06 09:47:00 51°9.11 2°32.76 39.3 0.5 222 12.3
2003-05-06 09:48:00 51°9.1 2°32.75 41.1 0.5 222 12.5
2003-05-06 09:49:00 51°9.09 2°32.74 42 0.5 219 12.5
2003-05-06 09:50:00 51°9.09 2°32.73 40.9 0.6 215 12.7
2003-05-06 09:51:00 51°9.08 2°32.72 40.5 0.6 220 12.9
2003-05-06 09:52:00 51°9.07 2°32.71 41 0.6 220 13
2003-05-06 09:53:00 51°9.11 2°32.76 46.3 7.1 43 12.3
2003-05-06 09:54:00 51°9.24 2°32.96 49.6 12.2 45 10.7
2003-05-06 09:55:00 51°9.38 2°33.2 50.5 12.5 46 9.7
2003-05-06 09:56:00 51°9.52 2°33.44 51 12.6 47 9.3
2003-05-06 09:57:00 51°9.67 2°33.67 50.1 12.5 45 8.9
2003-05-06 09:58:00 51°9.82 2°33.91 50.4 12.6 46 8.9
2003-05-06 09:59:00 51°9.96 2°34.15 50.5 12.6 46 9
2003-05-06 10:00:00 51°10.11 2°34.4 52.9 12.7 49 9.2
2003-05-06 10:01:00 51°10.25 2°34.65 52.3 12.5 48 8.3
2003-05-06 10:02:00 51°10.38 2°34.9 55.7 12.2 52 7.9
2003-05-06 10:03:00 51°10.52 2°35.13 50.2 12.3 47 8
2003-05-06 10:04:00 51°10.65 2°35.38 50.8 12.4 47 8.3
2003-05-06 10:05:00 51°10.79 2°35.63 54.4 12.5 51 8.9
2003-05-06 10:06:00 51°10.93 2°35.88 52.6 12.4 50 9.4
2003-05-06 10:07:00 51°11.07 2°36.12 50.6 12.4 45 9.6
2003-05-06 10:08:00 51°11.22 2°36.33 44.2 12.4 39 10.2
2003-05-06 10:09:00 51°11.38 2°36.54 44.2 12.3 40 10.3
2003-05-06 10:10:00 51°11.54 2°36.75 43.9 12.3 40 10.6
2003-05-06 10:11:00 51°11.7 2°36.96 44 12.3 40 10.9
2003-05-06 10:12:00 51°11.86 2°37.17 43.7 12.3 40 10.9
2003-05-06 10:13:00 51°12.02 2°37.38 43.4 12.4 39 11.2
2003-05-06 10:14:00 51°12.18 2°37.59 44 12.3 40 11.5
2003-05-06 10:15:00 51°12.33 2°37.8 44.7 12.3 40 11.8
2003-05-06 10:16:00 51°12.49 2°38.01 44.2 12.3 40 11.9
2003-05-06 10:17:00 51°12.65 2°38.22 44.5 12.3 40 12
2003-05-06 10:18:00 51°12.8 2°38.42 44.6 12.4 40 12.3
2003-05-06 10:19:00 51°12.96 2°38.63 43.7 12.4 38 12.6
2003-05-06 10:20:00 51°13.12 2°38.83 44.1 12 39 11.4
2003-05-06 10:21:00 51°13.28 2°39.04 44.4 12.3 39 12.8
2003-05-06 10:22:00 51°13.44 2°39.24 41.3 12.2 35 14
2003-05-06 10:23:00 51°13.63 2°39.34 11.3 12.5 2 13.7
2003-05-06 10:24:00 51°13.84 2°39.34 9.6 12.6 1 13.1
2003-05-06 10:25:00 51°14.05 2°39.35 10.1 12.6 2 13.1
2003-05-06 10:26:00 51°14.25 2°39.29 345.2 12.9 334 12.2
2003-05-06 10:27:00 51°14.41 2°39.05 308 13.7 298 15.2
2003-05-06 10:28:00 51°14.43 2°38.69 260.8 14.3 253 16.9
2003-05-06 10:29:00 51°14.32 2°38.34 248.9 14.7 244 17.6
2003-05-06 10:30:00 51°14.22 2°37.98 250.4 15 246 18
2003-05-06 10:31:00 51°14.12 2°37.62 251.2 15.1 246 19.1
2003-05-06 10:32:00 51°14.02 2°37.25 252.1 15.1 247 18.3
2003-05-06 10:33:00 51°13.92 2°36.88 252.7 15.2 248 18.4
2003-05-06 10:34:00 51°13.83 2°36.5 254 15.1 250 18.3
2003-05-06 10:35:00 51°13.74 2°36.13 253.7 15.1 249 17.6
2003-05-06 10:36:00 51°13.68 2°35.75 270.1 14.9 264 17.1
2003-05-06 10:37:00 51°13.73 2°35.37 303.9 14.1 296 14.6
2003-05-06 10:38:00 51°13.89 2°35.13 345.3 13.1 337 10.6
2003-05-06 10:39:00 51°14.1 2°35.06 6.1 13.2 357 18.1
2003-05-06 10:40:00 51°14.32 2°35.04 7.8 12.9 358 19.1
2003-05-06 10:41:00 51°14.53 2°35.04 8.5 12.7 359 18.3
2003-05-06 10:42:00 51°14.74 2°35.04 15.7 12.5 8 20.2
2003-05-06 10:43:00 51°14.94 2°35.13 29.5 12.4 22 21.9
2003-05-06 10:44:00 51°15.13 2°35.28 33.5 12.4 26 24
2003-05-06 10:45:00 51°15.31 2°35.42 33.2 12.3 26 25.1
2003-05-06 10:46:00 51°15.5 2°35.56 32.4 12.3 25 25.5
2003-05-06 10:47:00 51°15.68 2°35.7 32.2 12.2 24 26.7
2003-05-06 10:48:00 51°15.86 2°35.83 34.5 12.1 27 25.7
2003-05-06 10:49:00 51°16.04 2°35.97 33.3 12 25 26.1
2003-05-06 10:50:00 51°16.22 2°36.11 34.1 11.9 26 25.9
2003-05-06 10:51:00 51°16.4 2°36.25 33.2 12.2 25 27.4
2003-05-06 10:52:00 51°16.59 2°36.39 34.8 12.1 28 26.1
2003-05-06 10:53:00 51°16.76 2°36.54 35.5 12 27 26.5
2003-05-06 10:54:00 51°16.94 2°36.69 35.7 12.1 28 27
2003-05-06 10:55:00 51°17.12 2°36.83 35.5 12.1 28 26.2
2003-05-06 10:56:00 51°17.3 2°36.99 34.7 12.1 27 26.4
2003-05-06 10:57:00 51°17.48 2°37.14 35.1 12 29 25.8
2003-05-06 10:58:00 51°17.65 2°37.29 35.2 12.1 28 26.2
2003-05-06 10:59:00 51°17.83 2°37.44 35.2 12 28 24.5
2003-05-06 11:00:00 51°18 2°37.59 35.5 12 29 24.6
2003-05-06 11:01:00 51°18.18 2°37.74 35.6 12 29 24.4
2003-05-06 11:02:00 51°18.36 2°37.9 35.1 12 29 24.7
2003-05-06 11:03:00 51°18.53 2°38.05 35.5 12 28 25.4
2003-05-06 11:04:00 51°18.71 2°38.2 38.4 12 33 26
2003-05-06 11:05:00 51°18.87 2°38.38 39.8 11.9 33 26.1
2003-05-06 11:06:00 51°19.04 2°38.55 39.4 11.8 34 27.2
2003-05-06 11:07:00 51°19.2 2°38.73 39 11.9 34 27.5
2003-05-06 11:08:00 51°19.37 2°38.9 39.4 12.1 33 28
2003-05-06 11:09:00 51°19.53 2°39.09 42.7 12.1 37 28
2003-05-06 11:10:00 51°19.69 2°39.29 48.6 12.1 44 28.2
2003-05-06 11:11:00 51°19.8 2°39.57 73.5 12.2 73 29.2
2003-05-06 11:12:00 51°19.84 2°39.89 80.3 12.3 79 28.2
2003-05-06 11:13:00 51°19.89 2°40.21 79.6 12.3 78 27.9
2003-05-06 11:14:00 51°19.93 2°40.52 78.4 12.2 77 27.1
2003-05-06 11:15:00 51°19.99 2°40.84 77.8 12.4 77 19.4
2003-05-06 11:16:00 51°20.04 2°41.16 78.3 12.6 76 20.4
2003-05-06 11:17:00 51°20.09 2°41.48 77.2 12.4 73 16.6
2003-05-06 11:18:00 51°20.15 2°41.8 77.1 12.3 74 15.2
2003-05-06 11:19:00 51°20.2 2°42.12 79.4 12.3 78 19
2003-05-06 11:20:00 51°20.24 2°42.44 78.4 12.4 77 21.2
2003-05-06 11:21:00 51°20.29 2°42.76 79.9 12.5 78 24.4
2003-05-06 11:22:00 51°20.3 2°43.09 90.8 12.3 91 25.7
2003-05-06 11:23:00 51°20.3 2°43.41 90.2 12.3 91 26.4
2003-05-06 11:24:00 51°20.3 2°43.74 90 12.4 89 26.4
2003-05-06 11:25:00 51°20.3 2°44.06 90 12.5 91 26.6
2003-05-06 11:26:00 51°20.3 2°44.39 90.2 12.3 88 26.3
2003-05-06 11:27:00 51°20.31 2°44.72 89 12.4 88 24.3
2003-05-06 11:28:00 51°20.31 2°45.05 89.8 12.5 89 24
2003-05-06 11:29:00 51°20.32 2°45.38 89.1 12.5 89 23.2
2003-05-06 11:30:00 51°20.32 2°45.71 88.5 12.5 88 18.9
2003-05-06 11:31:00 51°20.33 2°46.04 88.9 12.4 88 17.3
2003-05-06 11:32:00 51°20.3 2°46.37 115.1 12.8 118 16.1
2003-05-06 11:33:00 51°20.18 2°46.66 125.2 13.2 128 16.2
2003-05-06 11:34:00 51°20.05 2°46.93 126.9 13.2 130 19.1
2003-05-06 11:35:00 51°19.91 2°47.2 123 12.9 127 20.8
2003-05-06 11:36:00 51°19.78 2°47.48 121.3 12.9 125 21.6
2003-05-06 11:37:00 51°19.66 2°47.76 120.5 12.9 124 21.8
2003-05-06 11:38:00 51°19.53 2°48.04 121.7 12.9 124 21
2003-05-06 11:39:00 51°19.41 2°48.33 121.6 13 123 18.6
2003-05-06 11:40:00 51°19.29 2°48.62 121.9 13.1 123 16.5
2003-05-06 11:41:00 51°19.17 2°48.91 122.5 13.1 123 14.5
2003-05-06 11:42:00 51°19.05 2°49.2 121.4 13 121 12.1
2003-05-06 11:43:00 51°18.93 2°49.49 123.9 13.2 124 10.9
2003-05-06 11:44:00 51°18.81 2°49.77 122 13 125 10.9
2003-05-06 11:45:00 51°18.68 2°50.05 122 12.8 127 13.2
2003-05-06 11:46:00 51°18.56 2°50.32 121.8 12.8 126 14.1
2003-05-06 11:47:00 51°18.42 2°50.59 124.6 13 128 14
2003-05-06 11:48:00 51°18.29 2°50.86 123.3 12.8 127 13.3
2003-05-06 11:49:00 51°18.16 2°51.13 128.1 13 132 12.4
2003-05-06 11:50:00 51°18 2°51.38 130.6 13.2 135 11.1
2003-05-06 11:51:00 51°17.85 2°51.64 128.8 13.2 132 10.1
2003-05-06 11:52:00 51°17.68 2°51.87 144.9 13.7 149 10.2
2003-05-06 11:53:00 51°17.47 2°52.03 151.6 14 155 10.5
2003-05-06 11:54:00 51°17.27 2°52.19 149.5 13.6 153 10.3
2003-05-06 11:55:00 51°17.08 2°52.35 149.1 10.8 154 10
2003-05-06 11:56:00 51°16.95 2°52.41 161.4 6 168 9.8
2003-05-06 11:57:00 51°16.88 2°52.44 147.3 3.6 162 10.3
2003-05-06 11:58:00 51°16.83 2°52.46 141.7 2.9 160 10.3
2003-05-06 11:59:00 51°16.79 2°52.49 131.3 2.3 157 10.4
2003-05-06 12:00:00 51°16.76 2°52.52 124.9 1.9 150 10.1
2003-05-06 12:01:00 51°16.73 2°52.54 119.3 1.7 155 10.3
2003-05-06 12:02:00 51°16.7 2°52.57 124.1 4.1 138 10.7
2003-05-06 12:03:00 51°16.56 2°52.73 147.1 13.4 149 11.6
2003-05-06 12:04:00 51°16.37 2°52.93 145.7 13.9 146 12.3
2003-05-06 12:05:00 51°16.16 2°53.1 151.3 13.8 154 12.3
2003-05-06 12:06:00 51°15.96 2°53.27 150.5 13.7 153 11.8
2003-05-06 12:07:00 51°15.76 2°53.43 151.7 13.7 153 11.5
2003-05-06 12:08:00 51°15.56 2°53.62 144.2 13.6 147 10.8
2003-05-06 12:09:00 51°15.37 2°53.83 142.9 13.5 145 10
2003-05-06 12:10:00 51°15.21 2°54 139.7 9.9 144 9.6
2003-05-06 12:11:00 51°15.05 2°54.12 157.5 10.4 157 9.1
2003-05-06 12:12:00 51°14.88 2°54.24 159.1 12 159 9.4
2003-05-06 12:13:00 51°14.74 2°54.31 156.9 6.7 160 10.3
2003-05-06 12:14:00 51°14.66 2°54.37 155.4 4.6 158 10.4
2003-05-06 12:15:00 51°14.58 2°54.43 141.5 7.1 143 10.8
2003-05-06 12:16:00 51°14.5 2°54.61 119.3 9.1 119 11.1
2003-05-06 12:17:00 51°14.43 2°54.83 118.6 9.6 120 10.5
2003-05-06 12:18:00 51°14.35 2°55.06 124.5 9.7 123 10.8